Kalona, Iowa
Current Conditions -  °F | °C
As of 11:52 AM on Sunday 21 Dec 2014 (Local Time) from KIOW Reporting Station
Overcast Overcast  
Wind Chill: 31°   Ceiling: 1800
Heat Index: 39°   Visibility: 10mi
Dew Point: 35°   Wind: 13mph
Humidity: 86%   Direction: 160°SSE
Pressure: 30.02"   Gusts: NA
Location:  41.48°N, 91.71°W
Report Text: KIOW 211752Z AUTO 16011KT 10SM OVC018 04/02 A3002 RMK AO2 SLP170 T00390017 10039 20022 58021
Loading
Personal Weather Stations






























Interactive Weather Map New forecast layout! Learn more

10-Day Weather Forecast

Advertisements
Track Severe Weather on mobile